You are not logged in, Click here to log in
ICAO: RJAA Country: 日本千葉縣成田市
Latitude: 35.772 Longitude: 140.393
Total Arrivals: 154 Total Departures: 145
Latest Arrival: 5KGK8 (RJFF-RJAA)LI WEN. Tu Latest Departure: JL3049 (RJAA-RJCC)LI WEN. Tu
Scenery:
METAR : RJAA 240930Z 16005KT CAVOK 21/15 Q1011 NOSIG

成田国際空港NRT